Time;durP1;ratioP1;P1;durP2;ratioP2;P2;SDS_P1;SDS_P2;PMS_P1;PMS_P2;Temp;Humidity;BMP_temperature;BMP_pressure;BME280_temperature;BME280_humidity;BME280_pressure;Samples;Min_cycle;Max_cycle;Signal;HPM_P1;HPM_P2
2022/03/25 00:02:18;;;;;;;32.08;16.48;;;;;;;;;;5087986;28;20028;-59
2022/03/25 00:04:44;;;;;;;25.83;17.10;;;;;;;;;;5086888;28;20059;-58
2022/03/25 00:07:10;;;;;;;24.73;16.20;;;;;;;;;;5088634;28;20554;-57
2022/03/25 00:09:36;;;;;;;24.90;16.55;;;;;;;;;;5088426;28;20031;-58
2022/03/25 00:12:04;;;;;;;27.10;17.73;;;;;;;;;;5088136;28;20107;-59
2022/03/25 00:14:30;;;;;;;26.70;16.00;;;;;;;;;;5088795;28;20415;-58
2022/03/25 00:16:56;;;;;;;23.73;15.32;;;;;;;;;;5088495;28;20024;-59
2022/03/25 00:19:23;;;;;;;25.33;16.65;;;;;;;;;;5082991;28;20070;-58
2022/03/25 00:21:49;;;;;;;28.27;15.90;;;;;;;;;;5088313;28;20463;-57
2022/03/25 00:24:15;;;;;;;24.02;15.88;;;;;;;;;;5086292;28;20401;-58
2022/03/25 00:26:41;;;;;;;23.65;15.52;;;;;;;;;;5074068;28;20074;-59
2022/03/25 00:29:07;;;;;;;25.42;15.85;;;;;;;;;;5088545;28;20077;-58
2022/03/25 00:31:33;;;;;;;23.40;14.98;;;;;;;;;;5088458;28;20040;-59
2022/03/25 00:33:59;;;;;;;22.15;14.77;;;;;;;;;;5087609;28;20028;-59
2022/03/25 00:36:26;;;;;;;25.88;15.27;;;;;;;;;;5088191;28;20433;-57
2022/03/25 00:38:52;;;;;;;21.52;13.77;;;;;;;;;;5088854;28;20031;-59
2022/03/25 00:41:22;;;;;;;22.55;15.48;;;;;;;;;;5088523;28;20359;-59
2022/03/25 00:43:48;;;;;;;;;;;;;;;;;;5092287;28;20043;-59
2022/03/25 00:46:15;;;;;;;24.15;14.75;;;;;;;;;;5092421;28;19904;-58
2022/03/25 00:48:42;;;;;;;22.58;14.57;;;;;;;;;;5091505;28;20028;-59
2022/03/25 00:51:08;;;;;;;21.42;14.82;;;;;;;;;;5092507;28;20036;-58
2022/03/25 00:53:34;;;;;;;21.05;14.45;;;;;;;;;;5091933;28;20115;-57
2022/03/25 00:56:01;;;;;;;23.08;14.70;;;;;;;;;;5092362;28;20043;-58
2022/03/25 00:58:27;;;;;;;24.67;14.25;;;;;;;;;;5091758;28;20024;-57
2022/03/25 01:00:53;;;;;;;22.00;14.82;;;;;;;;;;5092672;28;20126;-59
2022/03/25 01:03:21;;;;;;;22.50;14.95;;;;;;;;;;5091218;28;20064;-57
2022/03/25 01:05:47;;;;;;;21.30;15.10;;;;;;;;;;5091819;28;20085;-60
2022/03/25 01:08:14;;;;;;;23.50;15.65;;;;;;;;;;5091849;28;20064;-59
2022/03/25 01:10:41;;;;;;;23.33;13.90;;;;;;;;;;5092764;28;20024;-59
2022/03/25 01:13:07;;;;;;;21.52;14.30;;;;;;;;;;5092168;28;20120;-60
2022/03/25 01:15:33;;;;;;;23.67;15.18;;;;;;;;;;5091705;28;20482;-59
2022/03/25 01:18:00;;;;;;;24.58;13.90;;;;;;;;;;5084000;28;20123;-59
2022/03/25 01:20:26;;;;;;;21.77;13.77;;;;;;;;;;5091942;28;20080;-56
2022/03/25 01:22:52;;;;;;;24.90;14.80;;;;;;;;;;5091999;28;20059;-58
2022/03/25 01:25:18;;;;;;;20.33;13.50;;;;;;;;;;5091682;28;20048;-58
2022/03/25 01:27:44;;;;;;;22.40;13.95;;;;;;;;;;5092317;28;20463;-57
2022/03/25 01:30:10;;;;;;;25.35;15.07;;;;;;;;;;5091064;28;20481;-59
2022/03/25 01:32:37;;;;;;;21.55;14.60;;;;;;;;;;5091061;28;20086;-59
2022/03/25 01:35:06;;;;;;;23.23;14.63;;;;;;;;;;5091455;28;20094;-57
2022/03/25 01:37:32;;;;;;;23.63;14.93;;;;;;;;;;5091648;28;20036;-58
2022/03/25 01:39:58;;;;;;;24.30;15.07;;;;;;;;;;5091516;28;20056;-59
2022/03/25 01:42:34;;;;;;;22.02;14.65;;;;;;;;;;5091678;28;20036;-59
2022/03/25 01:45:01;;;;;;;21.90;14.48;;;;;;;;;;5088030;28;20027;-59
2022/03/25 01:47:30;;;;;;;23.50;15.02;;;;;;;;;;5091455;28;20182;-60
2022/03/25 01:49:57;;;;;;;19.93;13.67;;;;;;;;;;5091934;28;20020;-59
2022/03/25 01:52:23;;;;;;;23.08;14.63;;;;;;;;;;5091333;28;20148;-59
2022/03/25 01:54:49;;;;;;;21.20;14.70;;;;;;;;;;5091214;28;20390;-59
2022/03/25 01:57:15;;;;;;;22.92;14.80;;;;;;;;;;5090656;28;20466;-59
2022/03/25 01:59:41;;;;;;;19.27;14.60;;;;;;;;;;5088947;28;20051;-59
2022/03/25 02:02:09;;;;;;;20.23;14.57;;;;;;;;;;5091490;28;20070;-59
2022/03/25 02:04:35;;;;;;;22.92;14.40;;;;;;;;;;5090980;28;20099;-58
2022/03/25 02:07:02;;;;;;;21.67;15.18;;;;;;;;;;5091173;28;20012;-56
2022/03/25 02:09:29;;;;;;;25.40;14.70;;;;;;;;;;5091120;28;20035;-57
2022/03/25 02:11:56;;;;;;;21.58;13.63;;;;;;;;;;5091030;28;20032;-55
2022/03/25 02:14:22;;;;;;;21.00;14.55;;;;;;;;;;5080789;28;21869;-57
2022/03/25 02:16:49;;;;;;;20.05;14.50;;;;;;;;;;5089636;28;20143;-57
2022/03/25 02:19:19;;;;;;;21.45;14.52;;;;;;;;;;5091256;28;20024;-56
2022/03/25 02:21:47;;;;;;;23.17;15.35;;;;;;;;;;5090642;28;20055;-58
2022/03/25 02:24:13;;;;;;;19.73;14.57;;;;;;;;;;5091272;28;20111;-57
2022/03/25 02:26:40;;;;;;;21.80;14.98;;;;;;;;;;5090565;28;20052;-56
2022/03/25 02:29:07;;;;;;;23.00;15.80;;;;;;;;;;5088538;28;20040;-56
2022/03/25 02:31:34;;;;;;;21.77;14.40;;;;;;;;;;5082684;28;20050;-57
2022/03/25 02:34:01;;;;;;;22.63;15.38;;;;;;;;;;5087128;28;20035;-57
2022/03/25 02:36:27;;;;;;;22.58;15.45;;;;;;;;;;5080284;28;20429;-57
2022/03/25 02:38:53;;;;;;;21.65;15.02;;;;;;;;;;5091353;28;20070;-57
2022/03/25 02:41:19;;;;;;;22.92;15.60;;;;;;;;;;5090520;28;20035;-55
2022/03/25 02:43:45;;;;;;;22.23;15.38;;;;;;;;;;5090322;28;20185;-57
2022/03/25 02:46:12;;;;;;;21.00;14.85;;;;;;;;;;5089989;28;20115;-57
2022/03/25 02:48:39;;;;;;;20.58;14.18;;;;;;;;;;5090072;28;20509;-57
2022/03/25 02:51:05;;;;;;;21.17;15.43;;;;;;;;;;5090201;28;20044;-57
2022/03/25 02:53:32;;;;;;;21.88;15.07;;;;;;;;;;5090649;28;20067;-57
2022/03/25 02:55:58;;;;;;;25.27;15.90;;;;;;;;;;5090418;28;20028;-57
2022/03/25 02:58:24;;;;;;;23.85;14.73;;;;;;;;;;5089505;28;20024;-57
2022/03/25 03:00:50;;;;;;;22.45;15.75;;;;;;;;;;5090092;28;20032;-56
2022/03/25 03:03:17;;;;;;;23.35;15.85;;;;;;;;;;5090187;28;20024;-55
2022/03/25 03:05:43;;;;;;;21.33;14.63;;;;;;;;;;5090115;28;20032;-58
2022/03/25 03:08:09;;;;;;;21.38;15.13;;;;;;;;;;5089992;28;20019;-55
2022/03/25 03:10:35;;;;;;;22.98;15.98;;;;;;;;;;5071871;28;20035;-56
2022/03/25 03:13:02;;;;;;;22.77;16.63;;;;;;;;;;5082897;28;20166;-56
2022/03/25 03:15:29;;;;;;;20.80;15.10;;;;;;;;;;5088199;28;20043;-57
2022/03/25 03:17:55;;;;;;;20.27;14.85;;;;;;;;;;5090050;28;20103;-55
2022/03/25 03:20:24;;;;;;;20.92;14.50;;;;;;;;;;5089656;28;20386;-57
2022/03/25 03:22:50;;;;;;;20.83;14.45;;;;;;;;;;5089898;28;20067;-56
2022/03/25 03:25:16;;;;;;;22.20;17.02;;;;;;;;;;5090098;28;20071;-58
2022/03/25 03:27:42;;;;;;;20.42;15.15;;;;;;;;;;5089863;28;20151;-58
2022/03/25 03:30:11;;;;;;;24.08;15.82;;;;;;;;;;5088552;28;20868;-57
2022/03/25 03:32:37;;;;;;;22.02;15.40;;;;;;;;;;5089908;28;20047;-57
2022/03/25 03:35:04;;;;;;;22.67;16.60;;;;;;;;;;5088327;28;20457;-55
2022/03/25 03:37:30;;;;;;;23.98;16.38;;;;;;;;;;5089863;28;20173;-57
2022/03/25 03:39:56;;;;;;;23.70;15.77;;;;;;;;;;5089738;28;20065;-58
2022/03/25 03:42:23;;;;;;;23.50;16.52;;;;;;;;;;5088800;28;20937;-56
2022/03/25 03:44:49;;;;;;;20.77;16.38;;;;;;;;;;5083675;28;20505;-57
2022/03/25 03:47:15;;;;;;;21.75;16.08;;;;;;;;;;5089600;28;20115;-57
2022/03/25 03:49:41;;;;;;;21.13;14.85;;;;;;;;;;5089042;28;20035;-58
2022/03/25 03:52:10;;;;;;;21.35;16.38;;;;;;;;;;5089451;28;20028;-54
2022/03/25 03:54:38;;;;;;;21.98;16.15;;;;;;;;;;5089322;28;20016;-58
2022/03/25 03:57:04;;;;;;;24.98;17.83;;;;;;;;;;5089092;28;20397;-57
2022/03/25 03:59:30;;;;;;;22.80;16.45;;;;;;;;;;5085118;28;20028;-57
2022/03/25 04:01:56;;;;;;;24.17;16.67;;;;;;;;;;5089545;28;20028;-55
2022/03/25 04:04:22;;;;;;;23.33;16.60;;;;;;;;;;5088583;28;20412;-57
2022/03/25 04:06:48;;;;;;;22.92;16.73;;;;;;;;;;5089154;28;20418;-58
2022/03/25 04:09:14;;;;;;;24.13;17.63;;;;;;;;;;5087012;28;20090;-58
2022/03/25 04:11:40;;;;;;;25.15;17.77;;;;;;;;;;5088951;28;20035;-57
2022/03/25 04:14:06;;;;;;;23.63;17.10;;;;;;;;;;5083043;28;20024;-57
2022/03/25 04:16:32;;;;;;;23.58;16.80;;;;;;;;;;5088529;28;20528;-57
2022/03/25 04:18:58;;;;;;;23.08;17.20;;;;;;;;;;5088942;28;20097;-56
2022/03/25 04:21:24;;;;;;;24.92;18.23;;;;;;;;;;5089088;28;20436;-56
2022/03/25 04:23:50;;;;;;;22.17;16.90;;;;;;;;;;5088647;28;20024;-56
2022/03/25 04:26:16;;;;;;;24.92;18.27;;;;;;;;;;5088659;28;20047;-57
2022/03/25 04:28:42;;;;;;;23.10;17.08;;;;;;;;;;5088230;28;20200;-58
2022/03/25 04:31:09;;;;;;;25.38;17.55;;;;;;;;;;5088502;28;20724;-57
2022/03/25 04:33:36;;;;;;;23.15;18.02;;;;;;;;;;5088870;28;20358;-57
2022/03/25 04:36:02;;;;;;;25.92;17.15;;;;;;;;;;5089099;28;20513;-57
2022/03/25 04:38:29;;;;;;;24.13;18.42;;;;;;;;;;5089042;28;20127;-57
2022/03/25 04:40:56;;;;;;;23.25;17.65;;;;;;;;;;5089027;28;20386;-58
2022/03/25 04:43:22;;;;;;;23.65;17.73;;;;;;;;;;5088533;28;20122;-58
2022/03/25 04:45:48;;;;;;;24.38;18.33;;;;;;;;;;5082476;28;20023;-58
2022/03/25 04:48:14;;;;;;;24.38;18.88;;;;;;;;;;5089085;28;20120;-57
2022/03/25 04:50:41;;;;;;;25.38;18.52;;;;;;;;;;5088500;28;20115;-58
2022/03/25 04:53:07;;;;;;;23.95;17.48;;;;;;;;;;5088594;28;20482;-59
2022/03/25 04:55:33;;;;;;;24.48;17.98;;;;;;;;;;5088607;28;20149;-57
2022/03/25 04:57:59;;;;;;;24.40;19.05;;;;;;;;;;5068452;28;20048;-58
2022/03/25 05:00:26;;;;;;;25.55;17.70;;;;;;;;;;5071032;28;20762;-58
2022/03/25 05:02:52;;;;;;;26.58;19.42;;;;;;;;;;5088616;28;20110;-58
2022/03/25 05:05:19;;;;;;;23.88;18.30;;;;;;;;;;5088664;28;20478;-56
2022/03/25 05:07:46;;;;;;;23.92;19.58;;;;;;;;;;5088531;28;20106;-55
2022/03/25 05:10:12;;;;;;;23.30;18.20;;;;;;;;;;5069075;28;20059;-55
2022/03/25 05:12:42;;;;;;;26.25;19.70;;;;;;;;;;5085903;28;20520;-57
2022/03/25 05:15:08;;;;;;;23.17;18.60;;;;;;;;;;5088257;28;20149;-58
2022/03/25 05:17:34;;;;;;;25.80;19.25;;;;;;;;;;5087586;28;20115;-57
2022/03/25 05:20:04;;;;;;;25.77;19.83;;;;;;;;;;5078725;28;20175;-57
2022/03/25 05:22:30;;;;;;;27.40;20.38;;;;;;;;;;5084868;28;20477;-58
2022/03/25 05:24:56;;;;;;;70.13;49.00;;;;;;;;;;5087948;28;20028;-57
2022/03/25 05:27:22;;;;;;;86.28;57.30;;;;;;;;;;5087333;28;20501;-57
2022/03/25 05:29:48;;;;;;;85.13;59.67;;;;;;;;;;5091369;28;20040;-57
2022/03/25 05:32:14;;;;;;;81.75;59.83;;;;;;;;;;5091704;28;20079;-57
2022/03/25 05:34:40;;;;;;;86.60;59.80;;;;;;;;;;5092039;28;20036;-56
2022/03/25 05:37:06;;;;;;;89.93;62.08;;;;;;;;;;5091194;28;20142;-54
2022/03/25 05:39:32;;;;;;;85.55;58.28;;;;;;;;;;5082168;28;21174;-58
2022/03/25 05:41:58;;;;;;;79.75;55.85;;;;;;;;;;5082311;28;20458;-58
2022/03/25 05:44:25;;;;;;;86.55;55.72;;;;;;;;;;5083736;28;20031;-57
2022/03/25 05:46:51;;;;;;;80.85;58.88;;;;;;;;;;5081623;28;20070;-57
2022/03/25 05:49:17;;;;;;;77.82;55.80;;;;;;;;;;5086470;28;20066;-57
2022/03/25 05:51:43;;;;;;;80.82;57.42;;;;;;;;;;5083820;28;20082;-58
2022/03/25 05:54:09;;;;;;;86.13;58.58;;;;;;;;;;5084679;28;20077;-58
2022/03/25 05:56:38;;;;;;;80.25;57.38;;;;;;;;;;5079242;28;20476;-58
2022/03/25 05:59:05;;;;;;;78.80;55.60;;;;;;;;;;5082470;28;20025;-58
2022/03/25 06:01:31;;;;;;;74.82;54.05;;;;;;;;;;5087765;28;20562;-58
2022/03/25 06:03:57;;;;;;;80.10;56.03;;;;;;;;;;5091394;28;20119;-59
2022/03/25 06:06:24;;;;;;;80.90;58.08;;;;;;;;;;5083590;28;20406;-58
2022/03/25 06:08:50;;;;;;;85.97;58.10;;;;;;;;;;5083808;28;20052;-58
2022/03/25 06:11:16;;;;;;;84.97;61.00;;;;;;;;;;5080020;28;20161;-58
2022/03/25 06:13:42;;;;;;;78.97;57.42;;;;;;;;;;5085134;28;20039;-58
2022/03/25 06:16:08;;;;;;;79.60;58.33;;;;;;;;;;5079047;28;20044;-59
2022/03/25 06:18:34;;;;;;;79.75;58.13;;;;;;;;;;5084237;28;20051;-58
2022/03/25 06:21:00;;;;;;;79.60;58.30;;;;;;;;;;5086141;28;20199;-58
2022/03/25 06:23:26;;;;;;;80.55;57.17;;;;;;;;;;5091002;28;20032;-59
2022/03/25 06:25:52;;;;;;;78.85;57.13;;;;;;;;;;5084914;28;20028;-58
2022/03/25 06:28:22;;;;;;;84.45;59.72;;;;;;;;;;5081252;28;20048;-58
2022/03/25 06:30:48;;;;;;;75.75;55.95;;;;;;;;;;5083805;28;20482;-58
2022/03/25 06:33:14;;;;;;;79.28;55.70;;;;;;;;;;5080590;28;20052;-59
2022/03/25 06:35:41;;;;;;;80.32;58.00;;;;;;;;;;5084031;28;20057;-59
2022/03/25 06:38:08;;;;;;;74.20;53.70;;;;;;;;;;5079647;28;20024;-58
2022/03/25 06:40:34;;;;;;;76.15;54.03;;;;;;;;;;5079287;28;20042;-59
2022/03/25 06:43:00;;;;;;;78.13;55.08;;;;;;;;;;5078174;28;20105;-58
2022/03/25 06:45:27;;;;;;;75.97;53.58;;;;;;;;;;5078858;28;20036;-59
2022/03/25 06:47:53;;;;;;;75.22;53.90;;;;;;;;;;5089993;28;20044;-58
2022/03/25 06:50:21;;;;;;;75.13;52.13;;;;;;;;;;5090290;28;20062;-58
2022/03/25 06:52:47;;;;;;;71.43;51.80;;;;;;;;;;5090165;28;20054;-59
2022/03/25 06:55:13;;;;;;;74.50;51.20;;;;;;;;;;5089247;28;20028;-60
2022/03/25 06:57:40;;;;;;;65.38;49.70;;;;;;;;;;5090618;28;20165;-58
2022/03/25 07:00:12;;;;;;;68.22;51.35;;;;;;;;;;5089820;28;20063;-59
2022/03/25 07:02:42;;;;;;;72.38;50.65;;;;;;;;;;5083951;28;20054;-57
2022/03/25 07:05:08;;;;;;;70.60;51.53;;;;;;;;;;5083420;28;20378;-57
2022/03/25 07:07:36;;;;;;;73.03;50.47;;;;;;;;;;5090280;28;20020;-59
2022/03/25 07:10:03;;;;;;;62.65;47.45;;;;;;;;;;5090129;28;20099;-59
2022/03/25 07:12:29;;;;;;;62.90;46.35;;;;;;;;;;5084904;28;20028;-59
2022/03/25 07:14:55;;;;;;;73.90;47.88;;;;;;;;;;5079809;28;20043;-59
2022/03/25 07:17:21;;;;;;;62.03;45.60;;;;;;;;;;5079906;28;20470;-58
2022/03/25 07:19:47;;;;;;;60.90;42.95;;;;;;;;;;5079384;28;20036;-59
2022/03/25 07:22:14;;;;;;;66.13;45.58;;;;;;;;;;5085250;28;20024;-57
2022/03/25 07:24:40;;;;;;;59.45;43.78;;;;;;;;;;5077244;28;20040;-59
2022/03/25 07:27:06;;;;;;;59.08;43.22;;;;;;;;;;5085866;28;20040;-59
2022/03/25 07:29:32;;;;;;;61.55;42.25;;;;;;;;;;5089604;28;20478;-60
2022/03/25 07:31:58;;;;;;;63.42;40.95;;;;;;;;;;5087863;28;20043;-59
2022/03/25 07:34:24;;;;;;;68.78;43.15;;;;;;;;;;5088652;28;20099;-60
2022/03/25 07:36:50;;;;;;;55.45;40.67;;;;;;;;;;5088600;28;20466;-59
2022/03/25 07:39:16;;;;;;;62.03;41.10;;;;;;;;;;5088245;28;20064;-59
2022/03/25 07:41:42;;;;;;;64.22;41.35;;;;;;;;;;5086591;28;20072;-60
2022/03/25 07:44:08;;;;;;;56.63;37.83;;;;;;;;;;5086000;28;20032;-60
2022/03/25 07:46:34;;;;;;;55.42;38.45;;;;;;;;;;5086469;28;20020;-60
2022/03/25 07:49:00;;;;;;;55.30;38.90;;;;;;;;;;5087065;28;20024;-60
2022/03/25 07:51:26;;;;;;;54.78;37.58;;;;;;;;;;5087220;28;20086;-60
2022/03/25 07:53:52;;;;;;;51.00;37.33;;;;;;;;;;5067140;28;20148;-59
2022/03/25 07:56:18;;;;;;;54.70;38.63;;;;;;;;;;5071169;28;20089;-60
2022/03/25 07:58:44;;;;;;;54.40;35.22;;;;;;;;;;5088042;28;20723;-59
2022/03/25 08:01:10;;;;;;;51.95;33.35;;;;;;;;;;5088427;28;20071;-60
2022/03/25 08:03:37;;;;;;;91.10;41.97;;;;;;;;;;5087902;28;20012;-59
2022/03/25 08:06:03;;;;;;;76.00;44.58;;;;;;;;;;5088352;28;20039;-59
2022/03/25 08:08:29;;;;;;;74.03;43.85;;;;;;;;;;5088433;28;20134;-61
2022/03/25 08:10:56;;;;;;;70.63;39.97;;;;;;;;;;5088380;28;20112;-60
2022/03/25 08:13:23;;;;;;;63.35;40.20;;;;;;;;;;5088114;28;20036;-60
2022/03/25 08:15:49;;;;;;;62.05;38.92;;;;;;;;;;5087662;28;20024;-60
2022/03/25 08:18:16;;;;;;;56.45;35.60;;;;;;;;;;5087855;28;20048;-61
2022/03/25 08:20:47;;;;;;;62.53;35.25;;;;;;;;;;5088062;28;20036;-59
2022/03/25 08:23:13;;;;;;;62.65;35.25;;;;;;;;;;5087975;28;20024;-60
2022/03/25 08:28:25;;;;;;;59.25;33.47;;;;;;;;;;5087670;28;20093;-60
2022/03/25 08:30:52;;;;;;;56.63;33.80;;;;;;;;;;5087746;28;20474;-59
2022/03/25 08:33:18;;;;;;;54.10;32.70;;;;;;;;;;5087717;28;20473;-59
2022/03/25 08:35:44;;;;;;;50.20;33.60;;;;;;;;;;5087773;28;20024;-59
2022/03/25 08:38:11;;;;;;;56.70;35.67;;;;;;;;;;5088328;28;20024;-59
2022/03/25 08:40:38;;;;;;;56.05;38.75;;;;;;;;;;5088224;28;20090;-61
2022/03/25 08:43:05;;;;;;;55.72;36.50;;;;;;;;;;5088258;28;20031;-63
2022/03/25 08:45:31;;;;;;;50.70;34.45;;;;;;;;;;5087866;28;20384;-59
2022/03/25 08:47:58;;;;;;;50.95;32.33;;;;;;;;;;5087910;28;20123;-60
2022/03/25 08:50:24;;;;;;;47.65;31.10;;;;;;;;;;5085071;28;20021;-60
2022/03/25 08:52:51;;;;;;;46.58;31.33;;;;;;;;;;5067746;28;20592;-59
2022/03/25 08:55:19;;;;;;;39.88;29.90;;;;;;;;;;5086925;28;20031;-60
2022/03/25 08:57:45;;;;;;;41.45;29.38;;;;;;;;;;5086935;28;20032;-61
2022/03/25 09:00:12;;;;;;;48.15;30.17;;;;;;;;;;5085928;28;20023;-59
2022/03/25 09:02:39;;;;;;;43.95;29.63;;;;;;;;;;5086266;28;20636;-59
2022/03/25 09:05:05;;;;;;;45.80;30.38;;;;;;;;;;5089498;28;20054;-59
2022/03/25 09:07:31;;;;;;;40.15;29.30;;;;;;;;;;5090450;28;20514;-62
2022/03/25 09:09:58;;;;;;;43.63;28.05;;;;;;;;;;5090638;28;20059;-61
2022/03/25 09:12:25;;;;;;;44.05;28.92;;;;;;;;;;5091628;28;20036;-60
2022/03/25 09:14:51;;;;;;;46.22;28.33;;;;;;;;;;5091790;28;20031;-59
2022/03/25 09:17:17;;;;;;;37.63;27.80;;;;;;;;;;5091404;28;20099;-59
2022/03/25 09:19:43;;;;;;;41.67;28.00;;;;;;;;;;5091285;28;20816;-60
2022/03/25 09:22:10;;;;;;;42.63;27.58;;;;;;;;;;5091560;28;20040;-60
2022/03/25 09:24:36;;;;;;;42.10;27.98;;;;;;;;;;5091064;28;20028;-60
2022/03/25 09:27:02;;;;;;;41.50;26.63;;;;;;;;;;5090597;28;20503;-60
2022/03/25 09:29:28;;;;;;;40.67;28.38;;;;;;;;;;5091062;28;20119;-60
2022/03/25 09:31:55;;;;;;;43.58;27.33;;;;;;;;;;5090619;28;20131;-59
2022/03/25 09:37:06;;;;;;;37.95;25.27;;;;;;;;;;5088362;28;20043;-60
2022/03/25 09:39:32;;;;;;;38.17;25.25;;;;;;;;;;5090452;28;20135;-60
2022/03/25 09:41:59;;;;;;;35.60;25.77;;;;;;;;;;5090007;28;20028;-59
2022/03/25 09:44:25;;;;;;;33.88;24.02;;;;;;;;;;5090030;28;20533;-60
2022/03/25 09:46:51;;;;;;;37.45;26.08;;;;;;;;;;5089686;28;20111;-60
2022/03/25 09:49:18;;;;;;;32.95;24.05;;;;;;;;;;5090160;28;20496;-61
2022/03/25 09:51:44;;;;;;;37.47;23.40;;;;;;;;;;5089397;28;20474;-59
2022/03/25 09:54:12;;;;;;;32.78;23.23;;;;;;;;;;5089703;28;20055;-59
2022/03/25 09:56:38;;;;;;;33.70;23.92;;;;;;;;;;5089834;28;20024;-60
2022/03/25 09:59:06;;;;;;;32.03;22.98;;;;;;;;;;5089049;28;20136;-60
2022/03/25 10:01:32;;;;;;;33.42;24.17;;;;;;;;;;5089362;28;20389;-59
2022/03/25 10:03:58;;;;;;;32.80;22.42;;;;;;;;;;5090082;28;20024;-59
2022/03/25 10:06:24;;;;;;;33.67;23.25;;;;;;;;;;5089035;28;20075;-60
2022/03/25 10:08:57;;;;;;;31.52;23.05;;;;;;;;;;5089910;28;20035;-59
2022/03/25 10:11:25;;;;;;;30.80;22.27;;;;;;;;;;5089239;28;20032;-59
2022/03/25 10:14:09;;;;;;;29.55;21.58;;;;;;;;;;5089737;28;20081;-59
2022/03/25 10:16:35;;;;;;;31.63;22.15;;;;;;;;;;5089693;28;20119;-60
2022/03/25 10:19:01;;;;;;;29.15;20.33;;;;;;;;;;5089791;28;20107;-60
2022/03/25 10:21:30;;;;;;;27.58;20.58;;;;;;;;;;5089364;28;20362;-60
2022/03/25 10:23:56;;;;;;;28.13;20.55;;;;;;;;;;5089292;28;20042;-59
2022/03/25 10:26:35;;;;;;;27.20;21.00;;;;;;;;;;5089394;28;20044;-59
2022/03/25 10:29:01;;;;;;;28.40;19.95;;;;;;;;;;5089066;28;20027;-59
2022/03/25 10:31:27;;;;;;;28.23;21.92;;;;;;;;;;5089087;28;20391;-59
2022/03/25 10:33:57;;;;;;;27.30;20.80;;;;;;;;;;5089091;28;20024;-60
2022/03/25 10:36:25;;;;;;;24.58;18.52;;;;;;;;;;5088920;28;20030;-59
2022/03/25 10:39:00;;;;;;;28.60;20.17;;;;;;;;;;5089038;28;20024;-59
2022/03/25 10:41:36;;;;;;;26.17;20.48;;;;;;;;;;5089484;28;20157;-60
2022/03/25 10:44:03;;;;;;;26.70;19.73;;;;;;;;;;5088865;28;20031;-60
2022/03/25 10:46:39;;;;;;;27.27;19.92;;;;;;;;;;5089356;28;20028;-59
2022/03/25 10:49:10;;;;;;;25.90;17.90;;;;;;;;;;5088859;28;20024;-60
2022/03/25 10:51:35;;;;;;;;;;;;;;;;;;5089479;28;20036;-59
2022/03/25 10:54:07;;;;;;;25.88;18.83;;;;;;;;;;5088784;28;19926;-59
2022/03/25 10:57:02;;;;;;;24.65;17.55;;;;;;;;;;5089164;28;20040;-60
2022/03/25 10:59:30;;;;;;;24.25;17.98;;;;;;;;;;5083929;28;20106;-60
2022/03/25 11:01:57;;;;;;;24.17;17.35;;;;;;;;;;5088738;28;20028;-58
2022/03/25 11:04:24;;;;;;;23.90;17.08;;;;;;;;;;5089129;28;20028;-59
2022/03/25 11:06:50;;;;;;;32.47;21.77;;;;;;;;;;5072664;28;20098;-60
2022/03/25 11:09:17;;;;;;;28.92;20.48;;;;;;;;;;5081334;28;20119;-61
2022/03/25 11:11:43;;;;;;;36.28;24.40;;;;;;;;;;5088462;28;20036;-60
2022/03/25 11:14:10;;;;;;;35.08;24.83;;;;;;;;;;5087968;28;20089;-60
2022/03/25 11:16:55;;;;;;;41.38;26.42;;;;;;;;;;5075197;28;20097;-61
2022/03/25 11:19:22;;;;;;;43.33;28.75;;;;;;;;;;5081655;28;20031;-59
2022/03/25 11:21:49;;;;;;;44.80;31.67;;;;;;;;;;5088809;28;20052;-59
2022/03/25 11:24:20;;;;;;;49.95;33.65;;;;;;;;;;5085627;28;20026;-59
2022/03/25 11:26:47;;;;;;;41.70;29.73;;;;;;;;;;5085325;28;20098;-61
2022/03/25 11:29:15;;;;;;;44.50;30.70;;;;;;;;;;5088267;28;20127;-60
2022/03/25 11:32:00;;;;;;;43.90;32.05;;;;;;;;;;5088560;28;20119;-59
2022/03/25 11:34:26;;;;;;;47.15;29.77;;;;;;;;;;5079737;28;20058;-59
2022/03/25 11:37:11;;;;;;;40.08;28.15;;;;;;;;;;5084769;28;20030;-61
2022/03/25 11:39:37;;;;;;;41.00;28.25;;;;;;;;;;5087410;28;20648;-59
2022/03/25 11:42:04;;;;;;;36.53;27.05;;;;;;;;;;5087594;28;20845;-60
2022/03/25 11:44:30;;;;;;;38.25;27.42;;;;;;;;;;5087948;28;20028;-60
2022/03/25 11:47:00;;;;;;;41.00;27.17;;;;;;;;;;5087918;28;20031;-60
2022/03/25 11:49:27;;;;;;;38.45;27.33;;;;;;;;;;5087990;28;20089;-59
2022/03/25 11:51:53;;;;;;;38.75;26.27;;;;;;;;;;5086546;28;20150;-60
2022/03/25 11:54:37;;;;;;;37.33;26.58;;;;;;;;;;5086766;28;20052;-60
2022/03/25 11:57:04;;;;;;;33.40;24.40;;;;;;;;;;5073076;28;20073;-60
2022/03/25 11:59:48;;;;;;;38.63;25.83;;;;;;;;;;5082411;28;20020;-59
2022/03/25 12:02:26;;;;;;;36.88;25.23;;;;;;;;;;5077963;28;20107;-60
2022/03/25 12:04:52;;;;;;;34.65;24.20;;;;;;;;;;5088656;28;20028;-60
2022/03/25 12:07:18;;;;;;;32.05;22.95;;;;;;;;;;5088227;28;20021;-60
2022/03/25 12:09:47;;;;;;;35.22;23.92;;;;;;;;;;5087782;28;20024;-59
2022/03/25 12:12:14;;;;;;;31.90;23.65;;;;;;;;;;5087759;28;20925;-60
2022/03/25 12:14:59;;;;;;;34.08;24.30;;;;;;;;;;5087886;28;20383;-59
2022/03/25 12:17:25;;;;;;;31.10;23.70;;;;;;;;;;5086099;28;20028;-59
2022/03/25 12:19:54;;;;;;;30.02;22.00;;;;;;;;;;5087583;28;20020;-59
2022/03/25 12:22:20;;;;;;;31.52;22.83;;;;;;;;;;5088039;28;20024;-59
2022/03/25 12:24:47;;;;;;;33.65;22.65;;;;;;;;;;5083145;28;20820;-60
2022/03/25 12:27:13;;;;;;;31.00;21.17;;;;;;;;;;5086413;28;20513;-59
2022/03/25 12:29:40;;;;;;;64.78;30.02;;;;;;;;;;5074656;28;20045;-58
2022/03/25 12:32:07;;;;;;;46.67;30.65;;;;;;;;;;5077686;28;20044;-58
2022/03/25 12:34:41;;;;;;;51.40;33.05;;;;;;;;;;5088043;28;20028;-57
2022/03/25 12:37:08;;;;;;;50.72;34.95;;;;;;;;;;5078904;28;20020;-57
2022/03/25 12:39:36;;;;;;;49.83;34.72;;;;;;;;;;5089303;28;20032;-58
2022/03/25 12:42:10;;;;;;;55.13;37.22;;;;;;;;;;5091612;28;20050;-61
2022/03/25 12:44:36;;;;;;;57.10;37.17;;;;;;;;;;5091552;28;20059;-60
2022/03/25 12:47:03;;;;;;;54.20;37.05;;;;;;;;;;5091480;28;20105;-60
2022/03/25 12:49:30;;;;;;;59.17;37.70;;;;;;;;;;5085021;28;20501;-60
2022/03/25 12:51:57;;;;;;;48.80;36.55;;;;;;;;;;5081381;28;20064;-60
2022/03/25 12:54:23;;;;;;;52.03;36.80;;;;;;;;;;5091585;28;20032;-60
2022/03/25 12:57:01;;;;;;;59.63;39.88;;;;;;;;;;5091022;28;20020;-61
2022/03/25 12:59:28;;;;;;;56.50;38.05;;;;;;;;;;5090917;28;20020;-59
2022/03/25 13:01:54;;;;;;;54.95;39.47;;;;;;;;;;5091246;28;20024;-60
2022/03/25 13:04:29;;;;;;;54.60;35.78;;;;;;;;;;5091316;28;20028;-60
2022/03/25 13:07:08;;;;;;;54.13;37.97;;;;;;;;;;5091690;28;20024;-60
2022/03/25 13:09:34;;;;;;;51.22;35.03;;;;;;;;;;5081249;28;20115;-60
2022/03/25 13:12:02;;;;;;;51.53;34.97;;;;;;;;;;5090238;28;20048;-60
2022/03/25 13:14:28;;;;;;;50.75;33.85;;;;;;;;;;5084651;28;20024;-60
2022/03/25 13:16:54;;;;;;;49.78;34.40;;;;;;;;;;5091141;28;20091;-60
2022/03/25 13:19:31;;;;;;;46.80;33.90;;;;;;;;;;5091032;28;20027;-60
2022/03/25 13:21:57;;;;;;;57.38;34.05;;;;;;;;;;5091186;28;20115;-60
2022/03/25 13:24:24;;;;;;;55.25;33.72;;;;;;;;;;5091054;28;20127;-60
2022/03/25 13:26:50;;;;;;;49.53;32.45;;;;;;;;;;5078652;28;20052;-60
2022/03/25 13:29:16;;;;;;;45.55;30.30;;;;;;;;;;5089701;28;20355;-60
2022/03/25 13:31:49;;;;;;;47.30;31.85;;;;;;;;;;5091443;28;20036;-59
2022/03/25 13:34:18;;;;;;;45.83;31.00;;;;;;;;;;5090396;28;20028;-60
2022/03/25 13:36:52;;;;;;;45.10;31.15;;;;;;;;;;5088054;28;20111;-60
2022/03/25 13:39:19;;;;;;;44.60;29.45;;;;;;;;;;5086018;28;20034;-60
2022/03/25 13:41:45;;;;;;;48.92;29.40;;;;;;;;;;5090641;28;20079;-60
2022/03/25 13:44:13;;;;;;;41.90;28.85;;;;;;;;;;5090591;28;20050;-60
2022/03/25 13:46:39;;;;;;;45.58;29.90;;;;;;;;;;5090769;28;20036;-61
2022/03/25 13:49:07;;;;;;;41.03;27.90;;;;;;;;;;5088233;28;20027;-59
2022/03/25 13:51:44;;;;;;;39.28;27.38;;;;;;;;;;5078429;28;20159;-60
2022/03/25 13:54:14;;;;;;;42.00;28.38;;;;;;;;;;5080235;28;20112;-59
2022/03/25 13:56:40;;;;;;;;;;;;;;;;;;5088575;28;20056;-60
2022/03/25 13:59:07;;;;;;;40.10;26.55;;;;;;;;;;5079313;28;19904;-60
2022/03/25 14:01:38;;;;;;;35.00;25.98;;;;;;;;;;5090186;28;20024;-60
2022/03/25 14:04:14;;;;;;;33.05;24.75;;;;;;;;;;5089689;28;20098;-61
2022/03/25 14:06:41;;;;;;;38.40;26.30;;;;;;;;;;5086016;28;20024;-60
2022/03/25 14:09:26;;;;;;;42.83;27.38;;;;;;;;;;5089718;28;20039;-60
2022/03/25 14:11:52;;;;;;;38.17;24.73;;;;;;;;;;5089579;28;20047;-59
2022/03/25 14:14:34;;;;;;;37.35;24.58;;;;;;;;;;5081972;28;20350;-60
2022/03/25 14:17:00;;;;;;;35.80;24.83;;;;;;;;;;5082522;28;20402;-60
2022/03/25 14:19:27;;;;;;;34.17;24.63;;;;;;;;;;5086620;28;20398;-60
2022/03/25 14:21:53;;;;;;;41.53;25.35;;;;;;;;;;5087547;28;20036;-60
2022/03/25 14:24:34;;;;;;;38.50;26.58;;;;;;;;;;5088096;28;20024;-60
2022/03/25 14:27:00;;;;;;;47.60;26.52;;;;;;;;;;5078769;28;20033;-59